sensor_id;sensor_type;location;lat;lon;timestamp;P1;durP1;ratioP1;P2;durP2;ratioP2
22015;SDS011;64992;51.698;-0.292;2023-09-19T00:00:57;10.50;;;3.28;;
22015;SDS011;64992;51.698;-0.292;2023-09-19T00:03:23;12.48;;;3.40;;
22015;SDS011;64992;51.698;-0.292;2023-09-19T00:05:54;17.73;;;3.10;;
22015;SDS011;64992;51.698;-0.292;2023-09-19T00:08:20;17.17;;;3.67;;
22015;SDS011;64992;51.698;-0.292;2023-09-19T00:10:49;10.45;;;3.15;;
22015;SDS011;64992;51.698;-0.292;2023-09-19T00:13:15;16.63;;;2.70;;
22015;SDS011;64992;51.698;-0.292;2023-09-19T00:15:45;12.02;;;3.00;;
22015;SDS011;64992;51.698;-0.292;2023-09-19T00:18:13;16.60;;;3.20;;
22015;SDS011;64992;51.698;-0.292;2023-09-19T00:20:41;10.43;;;2.92;;
22015;SDS011;64992;51.698;-0.292;2023-09-19T00:23:07;10.27;;;3.30;;
22015;SDS011;64992;51.698;-0.292;2023-09-19T00:25:33;8.60;;;2.40;;
22015;SDS011;64992;51.698;-0.292;2023-09-19T00:28:00;19.45;;;3.20;;
22015;SDS011;64992;51.698;-0.292;2023-09-19T00:30:26;18.60;;;3.05;;
22015;SDS011;64992;51.698;-0.292;2023-09-19T00:32:52;12.43;;;3.35;;
22015;SDS011;64992;51.698;-0.292;2023-09-19T00:35:21;16.30;;;3.50;;
22015;SDS011;64992;51.698;-0.292;2023-09-19T00:37:51;17.25;;;3.67;;
22015;SDS011;64992;51.698;-0.292;2023-09-19T00:40:17;19.50;;;3.33;;
22015;SDS011;64992;51.698;-0.292;2023-09-19T00:42:44;13.23;;;3.15;;
22015;SDS011;64992;51.698;-0.292;2023-09-19T00:45:11;19.77;;;3.55;;
22015;SDS011;64992;51.698;-0.292;2023-09-19T00:47:44;12.60;;;3.40;;
22015;SDS011;64992;51.698;-0.292;2023-09-19T00:50:11;8.75;;;3.00;;
22015;SDS011;64992;51.698;-0.292;2023-09-19T00:52:39;15.65;;;4.28;;
22015;SDS011;64992;51.698;-0.292;2023-09-19T00:55:07;21.23;;;3.78;;
22015;SDS011;64992;51.698;-0.292;2023-09-19T00:57:33;9.55;;;3.25;;
22015;SDS011;64992;51.698;-0.292;2023-09-19T01:00:00;18.48;;;3.55;;
22015;SDS011;64992;51.698;-0.292;2023-09-19T01:02:30;17.20;;;3.08;;
22015;SDS011;64992;51.698;-0.292;2023-09-19T01:04:57;19.15;;;4.05;;
22015;SDS011;64992;51.698;-0.292;2023-09-19T01:07:23;16.48;;;3.47;;
22015;SDS011;64992;51.698;-0.292;2023-09-19T01:09:52;14.65;;;3.85;;
22015;SDS011;64992;51.698;-0.292;2023-09-19T01:12:22;12.13;;;3.47;;
22015;SDS011;64992;51.698;-0.292;2023-09-19T01:14:53;19.52;;;3.72;;
22015;SDS011;64992;51.698;-0.292;2023-09-19T01:17:27;22.48;;;4.05;;
22015;SDS011;64992;51.698;-0.292;2023-09-19T01:25:15;17.45;;;3.03;;
22015;SDS011;64992;51.698;-0.292;2023-09-19T01:30:26;20.30;;;4.07;;
22015;SDS011;64992;51.698;-0.292;2023-09-19T01:32:54;21.50;;;4.43;;
22015;SDS011;64992;51.698;-0.292;2023-09-19T01:35:20;18.42;;;3.78;;
22015;SDS011;64992;51.698;-0.292;2023-09-19T01:37:46;16.52;;;3.80;;
22015;SDS011;64992;51.698;-0.292;2023-09-19T01:40:14;24.73;;;4.72;;
22015;SDS011;64992;51.698;-0.292;2023-09-19T01:42:45;17.70;;;3.55;;
22015;SDS011;64992;51.698;-0.292;2023-09-19T01:48:05;20.17;;;4.45;;
22015;SDS011;64992;51.698;-0.292;2023-09-19T01:50:38;17.00;;;3.85;;
22015;SDS011;64992;51.698;-0.292;2023-09-19T01:53:10;27.70;;;5.15;;
22015;SDS011;64992;51.698;-0.292;2023-09-19T01:55:46;18.17;;;3.53;;
22015;SDS011;64992;51.698;-0.292;2023-09-19T02:01:01;27.52;;;4.10;;
22015;SDS011;64992;51.698;-0.292;2023-09-19T02:03:28;17.38;;;4.50;;
22015;SDS011;64992;51.698;-0.292;2023-09-19T02:05:55;22.05;;;4.50;;
22015;SDS011;64992;51.698;-0.292;2023-09-19T02:08:22;21.27;;;4.55;;
22015;SDS011;64992;51.698;-0.292;2023-09-19T02:10:52;16.45;;;3.67;;
22015;SDS011;64992;51.698;-0.292;2023-09-19T02:13:21;18.45;;;4.60;;
22015;SDS011;64992;51.698;-0.292;2023-09-19T02:15:53;25.85;;;4.60;;
22015;SDS011;64992;51.698;-0.292;2023-09-19T02:18:19;23.55;;;4.60;;
22015;SDS011;64992;51.698;-0.292;2023-09-19T02:20:45;27.88;;;6.05;;
22015;SDS011;64992;51.698;-0.292;2023-09-19T02:23:11;16.52;;;3.90;;
22015;SDS011;64992;51.698;-0.292;2023-09-19T02:25:37;18.92;;;3.47;;
22015;SDS011;64992;51.698;-0.292;2023-09-19T02:28:05;20.45;;;4.32;;
22015;SDS011;64992;51.698;-0.292;2023-09-19T02:30:31;22.38;;;4.30;;
22015;SDS011;64992;51.698;-0.292;2023-09-19T02:32:57;28.73;;;4.32;;
22015;SDS011;64992;51.698;-0.292;2023-09-19T02:35:26;15.90;;;4.20;;
22015;SDS011;64992;51.698;-0.292;2023-09-19T02:37:53;19.27;;;3.60;;
22015;SDS011;64992;51.698;-0.292;2023-09-19T02:40:19;21.33;;;4.72;;
22015;SDS011;64992;51.698;-0.292;2023-09-19T02:42:48;28.38;;;4.75;;
22015;SDS011;64992;51.698;-0.292;2023-09-19T02:45:16;29.80;;;4.45;;
22015;SDS011;64992;51.698;-0.292;2023-09-19T02:47:43;17.50;;;4.45;;
22015;SDS011;64992;51.698;-0.292;2023-09-19T02:50:09;12.57;;;5.53;;
22015;SDS011;64992;51.698;-0.292;2023-09-19T02:52:36;19.75;;;4.47;;
22015;SDS011;64992;51.698;-0.292;2023-09-19T02:55:02;22.95;;;4.78;;
22015;SDS011;64992;51.698;-0.292;2023-09-19T02:57:31;14.85;;;4.03;;
22015;SDS011;64992;51.698;-0.292;2023-09-19T02:59:58;20.50;;;4.47;;
22015;SDS011;64992;51.698;-0.292;2023-09-19T03:02:25;22.13;;;3.80;;
22015;SDS011;64992;51.698;-0.292;2023-09-19T03:04:52;20.20;;;4.72;;
22015;SDS011;64992;51.698;-0.292;2023-09-19T03:07:18;20.58;;;4.80;;
22015;SDS011;64992;51.698;-0.292;2023-09-19T03:09:44;20.88;;;4.30;;
22015;SDS011;64992;51.698;-0.292;2023-09-19T03:12:11;17.83;;;4.60;;
22015;SDS011;64992;51.698;-0.292;2023-09-19T03:14:42;23.48;;;4.90;;
22015;SDS011;64992;51.698;-0.292;2023-09-19T03:17:08;26.65;;;4.50;;
22015;SDS011;64992;51.698;-0.292;2023-09-19T03:19:34;19.20;;;4.65;;
22015;SDS011;64992;51.698;-0.292;2023-09-19T03:22:02;17.38;;;3.90;;
22015;SDS011;64992;51.698;-0.292;2023-09-19T03:24:28;20.30;;;3.45;;
22015;SDS011;64992;51.698;-0.292;2023-09-19T03:26:54;24.80;;;4.30;;
22015;SDS011;64992;51.698;-0.292;2023-09-19T03:29:20;18.52;;;4.55;;
22015;SDS011;64992;51.698;-0.292;2023-09-19T03:31:47;28.48;;;4.93;;
22015;SDS011;64992;51.698;-0.292;2023-09-19T03:34:16;20.67;;;4.28;;
22015;SDS011;64992;51.698;-0.292;2023-09-19T03:36:42;17.17;;;4.22;;
22015;SDS011;64992;51.698;-0.292;2023-09-19T03:39:08;26.52;;;4.57;;
22015;SDS011;64992;51.698;-0.292;2023-09-19T03:41:35;20.20;;;5.25;;
22015;SDS011;64992;51.698;-0.292;2023-09-19T03:44:01;18.95;;;3.95;;
22015;SDS011;64992;51.698;-0.292;2023-09-19T03:49:01;18.33;;;5.00;;
22015;SDS011;64992;51.698;-0.292;2023-09-19T03:51:31;16.38;;;3.92;;
22015;SDS011;64992;51.698;-0.292;2023-09-19T03:53:59;21.52;;;4.28;;
22015;SDS011;64992;51.698;-0.292;2023-09-19T03:56:26;19.02;;;3.88;;
22015;SDS011;64992;51.698;-0.292;2023-09-19T03:58:53;16.55;;;4.72;;
22015;SDS011;64992;51.698;-0.292;2023-09-19T04:01:20;17.85;;;4.50;;
22015;SDS011;64992;51.698;-0.292;2023-09-19T04:03:46;15.77;;;3.95;;
22015;SDS011;64992;51.698;-0.292;2023-09-19T04:06:15;17.20;;;3.63;;
22015;SDS011;64992;51.698;-0.292;2023-09-19T04:08:42;21.48;;;4.43;;
22015;SDS011;64992;51.698;-0.292;2023-09-19T04:11:09;18.65;;;4.60;;
22015;SDS011;64992;51.698;-0.292;2023-09-19T04:13:35;14.95;;;3.55;;
22015;SDS011;64992;51.698;-0.292;2023-09-19T04:16:02;17.73;;;3.40;;
22015;SDS011;64992;51.698;-0.292;2023-09-19T04:18:35;17.33;;;4.32;;
22015;SDS011;64992;51.698;-0.292;2023-09-19T04:21:03;22.27;;;4.60;;
22015;SDS011;64992;51.698;-0.292;2023-09-19T04:23:30;21.60;;;4.28;;
22015;SDS011;64992;51.698;-0.292;2023-09-19T04:25:57;19.40;;;4.20;;
22015;SDS011;64992;51.698;-0.292;2023-09-19T04:28:23;15.00;;;2.78;;
22015;SDS011;64992;51.698;-0.292;2023-09-19T04:30:49;13.95;;;3.22;;
22015;SDS011;64992;51.698;-0.292;2023-09-19T04:33:15;29.67;;;3.80;;
22015;SDS011;64992;51.698;-0.292;2023-09-19T04:35:42;18.02;;;3.92;;
22015;SDS011;64992;51.698;-0.292;2023-09-19T04:38:08;14.98;;;3.08;;
22015;SDS011;64992;51.698;-0.292;2023-09-19T04:40:34;17.40;;;3.65;;
22015;SDS011;64992;51.698;-0.292;2023-09-19T04:43:00;24.10;;;5.00;;
22015;SDS011;64992;51.698;-0.292;2023-09-19T04:45:27;12.77;;;4.07;;
22015;SDS011;64992;51.698;-0.292;2023-09-19T04:47:53;14.52;;;3.15;;
22015;SDS011;64992;51.698;-0.292;2023-09-19T04:50:20;19.20;;;4.07;;
22015;SDS011;64992;51.698;-0.292;2023-09-19T04:52:51;9.70;;;2.35;;
22015;SDS011;64992;51.698;-0.292;2023-09-19T04:55:20;20.13;;;3.30;;
22015;SDS011;64992;51.698;-0.292;2023-09-19T04:57:47;15.45;;;3.58;;
22015;SDS011;64992;51.698;-0.292;2023-09-19T05:00:14;11.82;;;2.97;;
22015;SDS011;64992;51.698;-0.292;2023-09-19T05:02:42;20.83;;;3.60;;
22015;SDS011;64992;51.698;-0.292;2023-09-19T05:05:08;20.63;;;3.47;;
22015;SDS011;64992;51.698;-0.292;2023-09-19T05:07:55;21.33;;;3.90;;
22015;SDS011;64992;51.698;-0.292;2023-09-19T05:10:21;20.60;;;4.38;;
22015;SDS011;64992;51.698;-0.292;2023-09-19T05:12:47;25.30;;;4.03;;
22015;SDS011;64992;51.698;-0.292;2023-09-19T05:15:16;15.10;;;3.35;;
22015;SDS011;64992;51.698;-0.292;2023-09-19T05:17:47;18.83;;;3.83;;
22015;SDS011;64992;51.698;-0.292;2023-09-19T05:20:14;15.07;;;3.47;;
22015;SDS011;64992;51.698;-0.292;2023-09-19T05:22:41;22.45;;;3.70;;
22015;SDS011;64992;51.698;-0.292;2023-09-19T05:25:08;25.02;;;3.53;;
22015;SDS011;64992;51.698;-0.292;2023-09-19T05:27:35;15.73;;;3.67;;
22015;SDS011;64992;51.698;-0.292;2023-09-19T05:30:01;16.85;;;3.15;;
22015;SDS011;64992;51.698;-0.292;2023-09-19T05:32:29;13.80;;;3.10;;
22015;SDS011;64992;51.698;-0.292;2023-09-19T05:34:55;21.20;;;3.97;;
22015;SDS011;64992;51.698;-0.292;2023-09-19T05:37:22;15.07;;;3.88;;
22015;SDS011;64992;51.698;-0.292;2023-09-19T05:39:48;14.98;;;3.17;;
22015;SDS011;64992;51.698;-0.292;2023-09-19T05:42:15;14.48;;;3.22;;
22015;SDS011;64992;51.698;-0.292;2023-09-19T05:44:42;15.43;;;4.22;;
22015;SDS011;64992;51.698;-0.292;2023-09-19T05:47:08;16.50;;;2.67;;
22015;SDS011;64992;51.698;-0.292;2023-09-19T05:49:37;15.20;;;2.90;;
22015;SDS011;64992;51.698;-0.292;2023-09-19T05:52:04;11.73;;;3.75;;
22015;SDS011;64992;51.698;-0.292;2023-09-19T05:54:31;18.15;;;4.18;;
22015;SDS011;64992;51.698;-0.292;2023-09-19T05:56:59;13.10;;;3.58;;
22015;SDS011;64992;51.698;-0.292;2023-09-19T05:59:25;14.90;;;3.10;;
22015;SDS011;64992;51.698;-0.292;2023-09-19T06:01:52;16.40;;;2.95;;
22015;SDS011;64992;51.698;-0.292;2023-09-19T06:04:18;14.20;;;3.67;;
22015;SDS011;64992;51.698;-0.292;2023-09-19T06:06:45;17.58;;;3.50;;
22015;SDS011;64992;51.698;-0.292;2023-09-19T06:09:14;11.05;;;2.72;;
22015;SDS011;64992;51.698;-0.292;2023-09-19T06:11:43;15.52;;;3.20;;
22015;SDS011;64992;51.698;-0.292;2023-09-19T06:14:09;12.98;;;3.13;;
22015;SDS011;64992;51.698;-0.292;2023-09-19T06:16:35;18.27;;;3.38;;
22015;SDS011;64992;51.698;-0.292;2023-09-19T06:19:04;16.52;;;3.50;;
22015;SDS011;64992;51.698;-0.292;2023-09-19T06:21:33;12.63;;;2.88;;
22015;SDS011;64992;51.698;-0.292;2023-09-19T06:24:00;15.90;;;2.67;;
22015;SDS011;64992;51.698;-0.292;2023-09-19T06:26:27;15.07;;;2.45;;
22015;SDS011;64992;51.698;-0.292;2023-09-19T06:28:54;10.23;;;2.60;;
22015;SDS011;64992;51.698;-0.292;2023-09-19T06:31:22;20.52;;;3.30;;
22015;SDS011;64992;51.698;-0.292;2023-09-19T06:33:51;17.15;;;3.35;;
22015;SDS011;64992;51.698;-0.292;2023-09-19T06:36:17;18.25;;;3.00;;
22015;SDS011;64992;51.698;-0.292;2023-09-19T06:38:44;19.35;;;2.88;;
22015;SDS011;64992;51.698;-0.292;2023-09-19T06:41:10;15.90;;;3.67;;
22015;SDS011;64992;51.698;-0.292;2023-09-19T06:43:37;9.77;;;2.53;;
22015;SDS011;64992;51.698;-0.292;2023-09-19T06:46:04;14.15;;;3.42;;
22015;SDS011;64992;51.698;-0.292;2023-09-19T06:48:32;14.52;;;3.63;;
22015;SDS011;64992;51.698;-0.292;2023-09-19T06:50:58;9.55;;;2.05;;
22015;SDS011;64992;51.698;-0.292;2023-09-19T06:53:29;12.35;;;2.90;;
22015;SDS011;64992;51.698;-0.292;2023-09-19T06:55:57;14.18;;;2.40;;
22015;SDS011;64992;51.698;-0.292;2023-09-19T06:58:23;15.30;;;2.63;;
22015;SDS011;64992;51.698;-0.292;2023-09-19T07:00:49;12.43;;;2.33;;
22015;SDS011;64992;51.698;-0.292;2023-09-19T07:03:15;11.52;;;2.92;;
22015;SDS011;64992;51.698;-0.292;2023-09-19T07:05:46;12.68;;;2.55;;
22015;SDS011;64992;51.698;-0.292;2023-09-19T07:08:12;6.03;;;2.08;;
22015;SDS011;64992;51.698;-0.292;2023-09-19T07:10:45;11.40;;;2.30;;
22015;SDS011;64992;51.698;-0.292;2023-09-19T07:13:13;8.13;;;2.10;;
22015;SDS011;64992;51.698;-0.292;2023-09-19T07:15:55;9.02;;;2.45;;
22015;SDS011;64992;51.698;-0.292;2023-09-19T07:18:28;5.97;;;1.52;;
22015;SDS011;64992;51.698;-0.292;2023-09-19T07:20:58;12.32;;;2.63;;
22015;SDS011;64992;51.698;-0.292;2023-09-19T07:23:31;8.75;;;2.08;;
22015;SDS011;64992;51.698;-0.292;2023-09-19T07:28:44;10.77;;;2.35;;
22015;SDS011;64992;51.698;-0.292;2023-09-19T07:31:10;5.88;;;2.60;;
22015;SDS011;64992;51.698;-0.292;2023-09-19T07:33:37;10.90;;;3.03;;
22015;SDS011;64992;51.698;-0.292;2023-09-19T07:36:05;11.90;;;2.42;;
22015;SDS011;64992;51.698;-0.292;2023-09-19T07:38:40;11.63;;;2.40;;
22015;SDS011;64992;51.698;-0.292;2023-09-19T07:41:07;9.93;;;2.20;;
22015;SDS011;64992;51.698;-0.292;2023-09-19T07:43:36;9.30;;;2.50;;
22015;SDS011;64992;51.698;-0.292;2023-09-19T07:46:08;10.63;;;2.28;;
22015;SDS011;64992;51.698;-0.292;2023-09-19T07:51:12;8.20;;;2.45;;
22015;SDS011;64992;51.698;-0.292;2023-09-19T07:53:44;8.90;;;2.58;;
22015;SDS011;64992;51.698;-0.292;2023-09-19T07:56:11;7.97;;;2.40;;
22015;SDS011;64992;51.698;-0.292;2023-09-19T07:58:44;10.52;;;3.25;;
22015;SDS011;64992;51.698;-0.292;2023-09-19T08:01:10;17.13;;;4.05;;
22015;SDS011;64992;51.698;-0.292;2023-09-19T08:03:39;13.95;;;2.97;;
22015;SDS011;64992;51.698;-0.292;2023-09-19T08:06:07;16.05;;;3.70;;
22015;SDS011;64992;51.698;-0.292;2023-09-19T08:11:32;7.30;;;2.97;;
22015;SDS011;64992;51.698;-0.292;2023-09-19T08:16:45;8.98;;;2.97;;
22015;SDS011;64992;51.698;-0.292;2023-09-19T08:19:11;13.57;;;3.90;;
22015;SDS011;64992;51.698;-0.292;2023-09-19T08:21:38;7.47;;;2.63;;
22015;SDS011;64992;51.698;-0.292;2023-09-19T08:24:05;13.48;;;3.10;;
22015;SDS011;64992;51.698;-0.292;2023-09-19T08:31:37;5.95;;;2.83;;
22015;SDS011;64992;51.698;-0.292;2023-09-19T08:34:03;8.00;;;2.72;;
22015;SDS011;64992;51.698;-0.292;2023-09-19T08:36:29;13.95;;;3.22;;
22015;SDS011;64992;51.698;-0.292;2023-09-19T08:38:56;14.23;;;3.90;;
22015;SDS011;64992;51.698;-0.292;2023-09-19T08:41:22;10.23;;;3.33;;
22015;SDS011;64992;51.698;-0.292;2023-09-19T08:43:48;14.60;;;4.07;;
22015;SDS011;64992;51.698;-0.292;2023-09-19T08:46:16;13.52;;;4.00;;
22015;SDS011;64992;51.698;-0.292;2023-09-19T08:48:57;11.02;;;3.05;;
22015;SDS011;64992;51.698;-0.292;2023-09-19T08:51:27;16.23;;;3.78;;
22015;SDS011;64992;51.698;-0.292;2023-09-19T08:54:08;16.10;;;4.27;;
22015;SDS011;64992;51.698;-0.292;2023-09-19T08:56:38;13.45;;;4.15;;
22015;SDS011;64992;51.698;-0.292;2023-09-19T08:59:05;13.15;;;4.13;;
22015;SDS011;64992;51.698;-0.292;2023-09-19T09:01:35;17.02;;;4.25;;
22015;SDS011;64992;51.698;-0.292;2023-09-19T09:04:02;12.98;;;4.10;;
22015;SDS011;64992;51.698;-0.292;2023-09-19T09:06:30;16.95;;;4.80;;
22015;SDS011;64992;51.698;-0.292;2023-09-19T09:08:57;15.25;;;4.85;;
22015;SDS011;64992;51.698;-0.292;2023-09-19T09:11:39;15.93;;;4.88;;
22015;SDS011;64992;51.698;-0.292;2023-09-19T09:14:07;19.58;;;4.95;;
22015;SDS011;64992;51.698;-0.292;2023-09-19T09:16:34;12.93;;;4.30;;
22015;SDS011;64992;51.698;-0.292;2023-09-19T09:19:00;13.15;;;4.53;;
22015;SDS011;64992;51.698;-0.292;2023-09-19T09:21:27;15.48;;;4.18;;
22015;SDS011;64992;51.698;-0.292;2023-09-19T09:23:53;9.45;;;3.38;;
22015;SDS011;64992;51.698;-0.292;2023-09-19T09:27:02;11.73;;;3.60;;
22015;SDS011;64992;51.698;-0.292;2023-09-19T09:29:12;13.67;;;4.00;;
22015;SDS011;64992;51.698;-0.292;2023-09-19T09:31:38;10.15;;;3.40;;
22015;SDS011;64992;51.698;-0.292;2023-09-19T09:34:13;14.48;;;3.28;;
22015;SDS011;64992;51.698;-0.292;2023-09-19T09:36:39;11.02;;;3.80;;
22015;SDS011;64992;51.698;-0.292;2023-09-19T09:39:11;11.70;;;4.28;;
22015;SDS011;64992;51.698;-0.292;2023-09-19T09:41:44;9.82;;;3.20;;
22015;SDS011;64992;51.698;-0.292;2023-09-19T09:44:14;15.18;;;4.25;;
22015;SDS011;64992;51.698;-0.292;2023-09-19T09:46:43;12.85;;;4.10;;
22015;SDS011;64992;51.698;-0.292;2023-09-19T09:49:25;11.40;;;3.47;;
22015;SDS011;64992;51.698;-0.292;2023-09-19T09:51:59;13.00;;;3.97;;
22015;SDS011;64992;51.698;-0.292;2023-09-19T09:54:29;13.65;;;4.82;;
22015;SDS011;64992;51.698;-0.292;2023-09-19T10:00:01;14.50;;;4.45;;
22015;SDS011;64992;51.698;-0.292;2023-09-19T10:02:38;13.40;;;4.32;;
22015;SDS011;64992;51.698;-0.292;2023-09-19T10:11:01;15.20;;;4.53;;
22015;SDS011;64992;51.698;-0.292;2023-09-19T10:13:53;13.20;;;3.95;;
22015;SDS011;64992;51.698;-0.292;2023-09-19T10:22:11;15.77;;;5.10;;
22015;SDS011;64992;51.698;-0.292;2023-09-19T10:24:39;19.20;;;5.75;;
22015;SDS011;64992;51.698;-0.292;2023-09-19T10:27:06;20.75;;;5.20;;
22015;SDS011;64992;51.698;-0.292;2023-09-19T10:29:52;14.75;;;4.57;;
22015;SDS011;64992;51.698;-0.292;2023-09-19T10:35:12;16.00;;;4.20;;
22015;SDS011;64992;51.698;-0.292;2023-09-19T10:49:25;15.52;;;4.95;;
22015;SDS011;64992;51.698;-0.292;2023-09-19T10:54:56;16.80;;;4.88;;
22015;SDS011;64992;51.698;-0.292;2023-09-19T10:57:24;16.08;;;4.45;;
22015;SDS011;64992;51.698;-0.292;2023-09-19T11:00:05;19.23;;;5.10;;
22015;SDS011;64992;51.698;-0.292;2023-09-19T11:05:43;18.00;;;6.07;;
22015;SDS011;64992;51.698;-0.292;2023-09-19T11:11:49;15.93;;;4.32;;
22015;SDS011;64992;51.698;-0.292;2023-09-19T11:28:35;12.35;;;4.43;;
22015;SDS011;64992;51.698;-0.292;2023-09-19T11:36:34;14.50;;;3.92;;
22015;SDS011;64992;51.698;-0.292;2023-09-19T11:48:15;9.32;;;3.97;;
22015;SDS011;64992;51.698;-0.292;2023-09-19T11:59:52;13.40;;;3.95;;
22015;SDS011;64992;51.698;-0.292;2023-09-19T12:02:27;11.38;;;4.15;;
22015;SDS011;64992;51.698;-0.292;2023-09-19T12:04:59;14.38;;;4.05;;
22015;SDS011;64992;51.698;-0.292;2023-09-19T12:07:25;12.55;;;4.97;;
22015;SDS011;64992;51.698;-0.292;2023-09-19T12:10:03;16.48;;;4.88;;
22015;SDS011;64992;51.698;-0.292;2023-09-19T12:12:29;9.73;;;3.33;;
22015;SDS011;64992;51.698;-0.292;2023-09-19T12:14:57;9.80;;;3.05;;
22015;SDS011;64992;51.698;-0.292;2023-09-19T12:17:46;9.93;;;3.00;;
22015;SDS011;64992;51.698;-0.292;2023-09-19T12:20:10;7.45;;;3.33;;
22015;SDS011;64992;51.698;-0.292;2023-09-19T12:22:43;9.13;;;2.80;;
22015;SDS011;64992;51.698;-0.292;2023-09-19T12:25:10;10.95;;;3.85;;
22015;SDS011;64992;51.698;-0.292;2023-09-19T12:27:43;13.82;;;3.47;;
22015;SDS011;64992;51.698;-0.292;2023-09-19T12:30:12;13.63;;;4.03;;
22015;SDS011;64992;51.698;-0.292;2023-09-19T12:32:44;11.80;;;3.40;;
22015;SDS011;64992;51.698;-0.292;2023-09-19T12:35:26;14.57;;;3.40;;
22015;SDS011;64992;51.698;-0.292;2023-09-19T12:37:55;10.32;;;2.90;;
22015;SDS011;64992;51.698;-0.292;2023-09-19T12:40:22;13.52;;;4.40;;
22015;SDS011;64992;51.698;-0.292;2023-09-19T12:42:52;15.40;;;2.72;;
22015;SDS011;64992;51.698;-0.292;2023-09-19T12:45:21;11.70;;;3.60;;
22015;SDS011;64992;51.698;-0.292;2023-09-19T12:50:33;4.43;;;2.28;;
22015;SDS011;64992;51.698;-0.292;2023-09-19T12:52:59;7.10;;;2.00;;
22015;SDS011;64992;51.698;-0.292;2023-09-19T12:55:28;6.43;;;2.40;;
22015;SDS011;64992;51.698;-0.292;2023-09-19T12:58:13;9.02;;;3.42;;
22015;SDS011;64992;51.698;-0.292;2023-09-19T13:00:43;10.10;;;3.57;;
22015;SDS011;64992;51.698;-0.292;2023-09-19T13:08:21;9.23;;;2.97;;
22015;SDS011;64992;51.698;-0.292;2023-09-19T13:11:09;9.55;;;3.25;;
22015;SDS011;64992;51.698;-0.292;2023-09-19T13:14:01;18.20;;;4.65;;
22015;SDS011;64992;51.698;-0.292;2023-09-19T13:16:56;7.47;;;2.80;;
22015;SDS011;64992;51.698;-0.292;2023-09-19T13:19:36;9.15;;;3.25;;
22015;SDS011;64992;51.698;-0.292;2023-09-19T13:22:02;9.77;;;3.00;;
22015;SDS011;64992;51.698;-0.292;2023-09-19T13:24:29;5.63;;;2.85;;
22015;SDS011;64992;51.698;-0.292;2023-09-19T13:26:56;10.95;;;3.63;;
22015;SDS011;64992;51.698;-0.292;2023-09-19T13:29:23;10.48;;;3.40;;
22015;SDS011;64992;51.698;-0.292;2023-09-19T13:31:50;7.80;;;2.85;;
22015;SDS011;64992;51.698;-0.292;2023-09-19T13:34:18;6.70;;;2.83;;
22015;SDS011;64992;51.698;-0.292;2023-09-19T13:36:45;8.05;;;3.05;;
22015;SDS011;64992;51.698;-0.292;2023-09-19T13:39:15;9.00;;;2.90;;
22015;SDS011;64992;51.698;-0.292;2023-09-19T13:41:43;11.07;;;3.28;;
22015;SDS011;64992;51.698;-0.292;2023-09-19T13:44:11;7.13;;;3.10;;
22015;SDS011;64992;51.698;-0.292;2023-09-19T13:46:39;8.75;;;3.22;;
22015;SDS011;64992;51.698;-0.292;2023-09-19T13:49:08;9.13;;;3.17;;
22015;SDS011;64992;51.698;-0.292;2023-09-19T13:51:34;10.02;;;3.47;;
22015;SDS011;64992;51.698;-0.292;2023-09-19T13:54:01;8.15;;;3.10;;
22015;SDS011;64992;51.698;-0.292;2023-09-19T13:56:27;5.90;;;2.72;;
22015;SDS011;64992;51.698;-0.292;2023-09-19T13:58:53;7.80;;;3.05;;
22015;SDS011;64992;51.698;-0.292;2023-09-19T14:01:20;8.70;;;3.05;;
22015;SDS011;64992;51.698;-0.292;2023-09-19T14:03:46;8.85;;;2.85;;
22015;SDS011;64992;51.698;-0.292;2023-09-19T14:06:15;7.93;;;3.25;;
22015;SDS011;64992;51.698;-0.292;2023-09-19T14:08:42;9.90;;;3.58;;
22015;SDS011;64992;51.698;-0.292;2023-09-19T14:11:08;10.75;;;3.45;;
22015;SDS011;64992;51.698;-0.292;2023-09-19T14:13:35;5.82;;;3.10;;
22015;SDS011;64992;51.698;-0.292;2023-09-19T14:16:04;6.72;;;2.60;;
22015;SDS011;64992;51.698;-0.292;2023-09-19T14:18:31;7.85;;;2.70;;
22015;SDS011;64992;51.698;-0.292;2023-09-19T14:20:58;11.10;;;3.25;;
22015;SDS011;64992;51.698;-0.292;2023-09-19T14:23:24;9.13;;;2.72;;
22015;SDS011;64992;51.698;-0.292;2023-09-19T14:25:51;7.38;;;3.42;;
22015;SDS011;64992;51.698;-0.292;2023-09-19T14:28:19;9.68;;;3.63;;
22015;SDS011;64992;51.698;-0.292;2023-09-19T14:30:45;8.65;;;2.55;;
22015;SDS011;64992;51.698;-0.292;2023-09-19T14:33:14;9.80;;;2.80;;
22015;SDS011;64992;51.698;-0.292;2023-09-19T14:35:42;8.68;;;3.05;;
22015;SDS011;64992;51.698;-0.292;2023-09-19T14:38:08;6.93;;;2.90;;
22015;SDS011;64992;51.698;-0.292;2023-09-19T14:40:34;6.25;;;2.50;;
22015;SDS011;64992;51.698;-0.292;2023-09-19T14:43:02;10.77;;;2.85;;
22015;SDS011;64992;51.698;-0.292;2023-09-19T14:45:29;8.02;;;2.63;;
22015;SDS011;64992;51.698;-0.292;2023-09-19T14:47:56;7.22;;;2.90;;
22015;SDS011;64992;51.698;-0.292;2023-09-19T14:50:22;8.18;;;2.95;;
22015;SDS011;64992;51.698;-0.292;2023-09-19T14:52:49;9.35;;;2.70;;
22015;SDS011;64992;51.698;-0.292;2023-09-19T14:55:17;6.95;;;2.33;;
22015;SDS011;64992;51.698;-0.292;2023-09-19T14:57:48;10.05;;;2.72;;
22015;SDS011;64992;51.698;-0.292;2023-09-19T15:00:17;8.05;;;2.67;;
22015;SDS011;64992;51.698;-0.292;2023-09-19T15:02:46;7.82;;;2.90;;
22015;SDS011;64992;51.698;-0.292;2023-09-19T15:05:14;5.38;;;2.40;;
22015;SDS011;64992;51.698;-0.292;2023-09-19T15:07:40;6.82;;;2.75;;
22015;SDS011;64992;51.698;-0.292;2023-09-19T15:10:07;13.15;;;3.00;;
22015;SDS011;64992;51.698;-0.292;2023-09-19T15:12:36;9.25;;;2.83;;
22015;SDS011;64992;51.698;-0.292;2023-09-19T15:15:04;10.63;;;3.38;;
22015;SDS011;64992;51.698;-0.292;2023-09-19T15:17:33;10.95;;;2.92;;
22015;SDS011;64992;51.698;-0.292;2023-09-19T15:20:00;9.35;;;2.72;;
22015;SDS011;64992;51.698;-0.292;2023-09-19T15:22:28;5.35;;;1.85;;
22015;SDS011;64992;51.698;-0.292;2023-09-19T15:24:54;7.53;;;2.97;;
22015;SDS011;64992;51.698;-0.292;2023-09-19T15:27:21;9.52;;;2.72;;
22015;SDS011;64992;51.698;-0.292;2023-09-19T15:29:48;7.28;;;2.53;;
22015;SDS011;64992;51.698;-0.292;2023-09-19T15:32:14;5.65;;;2.40;;
22015;SDS011;64992;51.698;-0.292;2023-09-19T15:34:40;6.97;;;2.28;;
22015;SDS011;64992;51.698;-0.292;2023-09-19T15:37:06;6.43;;;2.35;;
22015;SDS011;64992;51.698;-0.292;2023-09-19T15:39:32;6.10;;;1.77;;
22015;SDS011;64992;51.698;-0.292;2023-09-19T15:42:02;6.15;;;2.53;;
22015;SDS011;64992;51.698;-0.292;2023-09-19T15:44:28;6.10;;;2.38;;
22015;SDS011;64992;51.698;-0.292;2023-09-19T15:53:01;7.15;;;3.38;;
22015;SDS011;64992;51.698;-0.292;2023-09-19T15:55:42;8.18;;;2.13;;
22015;SDS011;64992;51.698;-0.292;2023-09-19T16:01:08;4.50;;;2.10;;
22015;SDS011;64992;51.698;-0.292;2023-09-19T16:06:13;6.35;;;2.20;;
22015;SDS011;64992;51.698;-0.292;2023-09-19T16:08:41;4.95;;;2.05;;
22015;SDS011;64992;51.698;-0.292;2023-09-19T16:11:08;7.50;;;2.47;;
22015;SDS011;64992;51.698;-0.292;2023-09-19T16:13:40;6.32;;;2.38;;
22015;SDS011;64992;51.698;-0.292;2023-09-19T16:16:09;10.18;;;2.60;;
22015;SDS011;64992;51.698;-0.292;2023-09-19T16:18:47;7.28;;;2.40;;
22015;SDS011;64992;51.698;-0.292;2023-09-19T16:30:41;8.02;;;2.92;;
22015;SDS011;64992;51.698;-0.292;2023-09-19T16:36:11;9.43;;;2.95;;
22015;SDS011;64992;51.698;-0.292;2023-09-19T16:41:39;14.75;;;4.22;;
22015;SDS011;64992;51.698;-0.292;2023-09-19T16:50:32;16.30;;;4.63;;
22015;SDS011;64992;51.698;-0.292;2023-09-19T16:56:06;16.65;;;4.25;;
22015;SDS011;64992;51.698;-0.292;2023-09-19T16:58:36;16.50;;;3.80;;
22015;SDS011;64992;51.698;-0.292;2023-09-19T17:01:03;16.42;;;4.07;;
22015;SDS011;64992;51.698;-0.292;2023-09-19T17:03:29;17.67;;;4.82;;
22015;SDS011;64992;51.698;-0.292;2023-09-19T17:05:58;19.48;;;4.78;;
22015;SDS011;64992;51.698;-0.292;2023-09-19T17:08:25;20.13;;;4.30;;